Time;durP1;ratioP1;P1;durP2;ratioP2;P2;SDS_P1;SDS_P2;PMS_P1;PMS_P2;Temp;Humidity;BMP_temperature;BMP_pressure;BME280_temperature;BME280_humidity;BME280_pressure;Samples;Min_cycle;Max_cycle;Signal;HPM_P1;HPM_P2
2021/12/16 00:01:50;;;;;;;3.50;3.17;;;8.40;99.90;;;;;;5035177;28;20195;-72
2021/12/16 00:05:05;;;;;;;3.80;3.00;;;8.40;99.90;;;;;;5032429;28;20605;-73
2021/12/16 00:07:26;;;;;;;3.10;2.80;;;8.40;99.90;;;;;;5037858;28;20180;-72
2021/12/16 00:10:00;;;;;;;4.15;3.67;;;8.40;99.90;;;;;;5039258;28;20219;-72
2021/12/16 00:29:33;;;;;;;3.80;2.92;;;8.40;99.90;;;;;;5053162;28;20230;-72
2021/12/16 00:32:17;;;;;;;3.63;2.75;;;8.40;99.90;;;;;;5031277;28;20190;-72
2021/12/16 00:34:45;;;;;;;4.95;3.00;;;8.40;99.90;;;;;;5032804;28;20226;-73
2021/12/16 00:37:14;;;;;;;3.17;2.85;;;8.40;99.90;;;;;;5030252;28;20559;-73
2021/12/16 00:39:44;;;;;;;3.00;2.60;;;8.30;99.90;;;;;;5026803;28;20255;-73
2021/12/16 00:42:26;;;;;;;3.72;2.95;;;8.30;99.90;;;;;;5026623;28;20199;-73
2021/12/16 00:45:28;;;;;;;3.28;2.90;;;8.40;99.90;;;;;;5012572;28;20255;-73
2021/12/16 00:48:02;;;;;;;3.42;2.78;;;8.40;99.90;;;;;;5030631;28;20299;-72
2021/12/16 00:56:10;;;;;;;3.83;3.20;;;8.40;99.90;;;;;;5006675;28;20422;-72
2021/12/16 00:58:47;;;;;;;4.27;3.33;;;8.40;99.90;;;;;;5004601;28;20273;-73
2021/12/16 01:01:32;;;;;;;3.75;3.05;;;8.40;99.90;;;;;;5012977;28;20469;-72
2021/12/16 01:04:26;;;;;;;2.90;2.50;;;8.40;99.90;;;;;;5012410;28;20223;-73
2021/12/16 01:07:19;;;;;;;4.00;3.60;;;8.40;99.90;;;;;;5012907;28;20204;-73
2021/12/16 01:35:15;;;;;;;3.33;3.03;;;8.40;99.90;;;;;;5050937;28;20943;-73
2021/12/16 01:38:16;;;;;;;4.13;3.50;;;8.40;99.90;;;;;;5030449;28;20202;-73
2021/12/16 01:41:32;;;;;;;4.03;3.42;;;8.40;99.90;;;;;;5016207;28;20300;-73
2021/12/16 01:47:16;;;;;;;4.15;3.40;;;8.40;99.90;;;;;;5016457;28;20224;-72
2021/12/16 01:49:59;;;;;;;4.07;3.67;;;8.40;99.90;;;;;;5015611;28;20237;-73
2021/12/16 01:53:03;;;;;;;5.03;3.67;;;8.40;99.90;;;;;;5001198;28;20218;-73
2021/12/16 01:55:39;;;;;;;3.63;3.10;;;8.40;99.90;;;;;;4992184;28;20220;-73
2021/12/16 01:58:14;;;;;;;4.07;3.45;;;8.40;99.90;;;;;;5015714;28;20228;-73
2021/12/16 02:00:58;;;;;;;4.43;3.30;;;8.40;99.90;;;;;;5012455;28;20224;-74
2021/12/16 02:03:40;;;;;;;3.88;2.63;;;8.40;99.90;;;;;;5012337;28;20415;-73
2021/12/16 02:06:26;;;;;;;3.92;3.38;;;8.40;99.90;;;;;;4996242;28;20615;-72
2021/12/16 02:08:57;;;;;;;3.58;3.28;;;8.40;99.90;;;;;;5015028;28;20243;-72
2021/12/16 02:11:44;;;;;;;5.23;3.50;;;8.40;99.90;;;;;;5026622;28;20193;-72
2021/12/16 02:28:35;;;;;;;4.03;3.63;;;8.40;99.90;;;;;;5022818;28;20694;-72
2021/12/16 02:31:22;;;;;;;4.80;3.95;;;8.40;99.90;;;;;;5021301;28;20211;-72
2021/12/16 02:34:20;;;;;;;3.90;3.10;;;8.40;99.90;;;;;;5034727;28;20247;-73
2021/12/16 02:36:50;;;;;;;3.78;3.17;;;8.40;99.90;;;;;;5025118;28;20892;-72
2021/12/16 02:39:23;;;;;;;4.40;3.80;;;8.40;99.90;;;;;;5026918;28;20564;-73
2021/12/16 02:41:55;;;;;;;4.10;3.45;;;8.40;99.90;;;;;;5015452;28;20837;-73
2021/12/16 02:44:33;;;;;;;3.67;3.38;;;8.40;99.90;;;;;;5034714;28;20214;-72
2021/12/16 02:49:52;;;;;;;3.95;3.53;;;8.40;99.90;;;;;;5013964;28;20476;-75
2021/12/16 02:52:23;;;;;;;4.70;3.47;;;8.40;99.90;;;;;;5011878;28;20197;-73
2021/12/16 02:54:53;;;;;;;5.10;3.65;;;8.40;99.90;;;;;;5011541;28;20244;-73
2021/12/16 02:57:24;;;;;;;3.70;3.17;;;8.40;99.90;;;;;;5014447;28;20192;-73
2021/12/16 02:59:53;;;;;;;4.40;3.65;;;8.40;99.90;;;;;;5027956;28;20520;-72
2021/12/16 03:02:24;;;;;;;5.03;3.60;;;8.40;99.90;;;;;;5038223;28;20194;-72
2021/12/16 03:04:53;;;;;;;4.97;3.25;;;8.40;99.90;;;;;;5035946;28;20477;-73
2021/12/16 03:07:22;;;;;;;4.93;3.55;;;8.40;99.90;;;;;;5018532;28;20189;-72
2021/12/16 03:10:22;;;;;;;5.82;4.45;;;8.40;99.90;;;;;;5021002;28;20226;-72
2021/12/16 03:13:03;;;;;;;5.03;3.47;;;8.40;99.90;;;;;;5013542;28;20200;-73
2021/12/16 03:15:54;;;;;;;4.13;3.40;;;8.40;99.90;;;;;;5001481;28;20221;-74
2021/12/16 03:18:33;;;;;;;4.07;3.38;;;8.40;99.90;;;;;;5017812;28;20480;-73
2021/12/16 03:21:09;;;;;;;4.35;3.25;;;8.40;99.90;;;;;;5003212;28;20278;-73
2021/12/16 03:23:51;;;;;;;4.50;4.03;;;8.40;99.90;;;;;;5006973;28;20314;-72
2021/12/16 03:27:05;;;;;;;3.75;3.22;;;8.40;99.90;;;;;;5038357;28;20462;-73
2021/12/16 03:30:13;;;;;;;5.63;3.78;;;8.40;99.90;;;;;;5018995;28;20231;-73
2021/12/16 03:36:07;;;;;;;4.45;3.95;;;8.40;99.90;;;;;;4989230;28;20190;-72
2021/12/16 03:38:42;;;;;;;3.97;3.30;;;8.40;99.90;;;;;;5013345;28;20230;-74
2021/12/16 03:41:10;;;;;;;4.72;3.05;;;8.40;99.90;;;;;;5030385;28;20209;-72
2021/12/16 03:43:40;;;;;;;5.93;3.78;;;8.40;99.90;;;;;;5030323;28;20226;-73
2021/12/16 03:46:27;;;;;;;4.97;4.15;;;8.40;99.90;;;;;;5018498;28;20659;-72
2021/12/16 03:49:01;;;;;;;4.57;4.13;;;8.40;99.90;;;;;;5059379;28;20222;-73
2021/12/16 03:51:36;;;;;;;3.90;3.50;;;8.40;99.90;;;;;;5017944;28;20507;-73
2021/12/16 03:54:09;;;;;;;7.13;4.90;;;8.40;99.90;;;;;;5022448;28;20228;-73
2021/12/16 03:56:41;;;;;;;5.43;4.15;;;8.40;99.90;;;;;;5060678;28;20276;-73
2021/12/16 03:59:17;;;;;;;4.05;3.65;;;8.40;99.90;;;;;;5026145;28;20220;-73
2021/12/16 04:01:55;;;;;;;6.15;4.82;;;8.40;99.90;;;;;;5031714;28;20677;-72
2021/12/16 04:04:30;;;;;;;4.45;4.05;;;8.40;99.90;;;;;;5030040;28;20211;-72
2021/12/16 04:07:01;;;;;;;5.82;4.45;;;8.40;99.90;;;;;;5033952;28;20580;-73
2021/12/16 04:09:34;;;;;;;5.15;3.78;;;8.40;99.90;;;;;;5032328;28;20725;-73
2021/12/16 04:12:19;;;;;;;5.13;3.85;;;8.40;99.90;;;;;;5030047;28;20628;-72
2021/12/16 04:14:51;;;;;;;5.90;4.13;;;8.40;99.90;;;;;;5040380;28;20242;-73
2021/12/16 04:17:22;;;;;;;3.97;3.65;;;8.40;99.90;;;;;;5066975;28;20273;-73
2021/12/16 04:19:58;;;;;;;5.13;4.10;;;8.40;99.90;;;;;;5029531;28;20598;-73
2021/12/16 04:22:33;;;;;;;5.03;4.50;;;8.40;99.90;;;;;;5033079;28;20223;-72
2021/12/16 04:25:08;;;;;;;5.82;3.90;;;8.40;99.90;;;;;;5054165;28;20227;-74
2021/12/16 04:27:37;;;;;;;5.20;4.30;;;8.40;99.90;;;;;;5046714;28;20680;-72
2021/12/16 04:30:10;;;;;;;6.10;5.40;;;8.40;99.90;;;;;;5055577;28;20958;-72
2021/12/16 04:32:42;;;;;;;6.23;4.17;;;8.40;99.90;;;;;;5032586;28;20214;-73
2021/12/16 04:35:10;;;;;;;5.63;4.50;;;8.40;99.90;;;;;;5032782;28;20448;-73
2021/12/16 04:37:39;;;;;;;4.07;3.25;;;8.40;99.90;;;;;;5059765;28;20192;-72
2021/12/16 04:40:09;;;;;;;5.28;4.10;;;8.40;99.90;;;;;;5047090;28;20209;-73
2021/12/16 04:42:43;;;;;;;6.78;4.82;;;8.40;99.90;;;;;;5029805;28;20250;-72
2021/12/16 04:45:17;;;;;;;7.30;4.65;;;8.40;99.90;;;;;;5029209;28;20196;-72
2021/12/16 04:47:48;;;;;;;5.47;4.75;;;8.40;99.90;;;;;;5026794;28;20207;-72
2021/12/16 04:50:17;;;;;;;5.85;4.55;;;8.40;99.90;;;;;;5037456;28;20216;-73
2021/12/16 04:52:46;;;;;;;5.93;5.25;;;8.40;99.90;;;;;;5023898;28;20223;-72
2021/12/16 04:55:19;;;;;;;6.55;5.20;;;8.40;99.90;;;;;;5037210;28;20200;-73
2021/12/16 04:57:50;;;;;;;5.97;5.38;;;8.40;99.90;;;;;;5033159;28;20554;-72
2021/12/16 05:00:22;;;;;;;7.15;4.35;;;8.40;99.90;;;;;;5033062;28;20216;-73
2021/12/16 05:03:03;;;;;;;7.73;5.47;;;8.40;99.90;;;;;;5061508;28;20341;-72
2021/12/16 05:05:36;;;;;;;7.43;4.50;;;8.40;99.90;;;;;;5062630;28;20562;-72
2021/12/16 05:08:05;;;;;;;5.55;4.38;;;8.40;99.90;;;;;;5035240;28;20414;-72
2021/12/16 05:10:38;;;;;;;5.95;4.53;;;8.40;99.90;;;;;;5034557;28;20239;-73
2021/12/16 05:13:15;;;;;;;6.60;4.65;;;8.40;99.90;;;;;;5036105;28;20229;-73
2021/12/16 05:15:46;;;;;;;8.13;5.95;;;8.40;99.90;;;;;;5033874;28;20201;-73
2021/12/16 05:18:21;;;;;;;5.10;3.97;;;8.40;99.90;;;;;;5032551;28;20643;-72
2021/12/16 05:20:55;;;;;;;7.28;4.45;;;8.40;99.90;;;;;;5036327;28;20232;-73
2021/12/16 05:26:16;;;;;;;8.10;5.27;;;8.40;99.90;;;;;;5069591;28;20215;-72
2021/12/16 05:29:00;;;;;;;5.25;4.75;;;8.40;99.90;;;;;;5048968;28;20479;-73
2021/12/16 05:31:31;;;;;;;6.90;5.15;;;8.40;99.90;;;;;;5049407;28;20199;-73
2021/12/16 05:34:04;;;;;;;5.60;4.60;;;8.40;99.90;;;;;;5052418;28;20219;-73
2021/12/16 05:36:35;;;;;;;8.20;6.40;;;8.40;99.90;;;;;;5062701;28;20202;-73
2021/12/16 05:39:05;;;;;;;6.05;4.97;;;8.40;99.90;;;;;;5032367;28;20221;-73
2021/12/16 05:41:42;;;;;;;6.13;4.90;;;8.40;99.90;;;;;;5033380;28;20263;-73
2021/12/16 05:44:11;;;;;;;6.75;5.20;;;8.40;99.90;;;;;;5034066;28;20215;-73
2021/12/16 05:46:40;;;;;;;6.70;4.90;;;8.40;99.90;;;;;;5045489;28;20253;-72
2021/12/16 05:49:12;;;;;;;9.73;6.57;;;8.40;99.90;;;;;;5065488;28;20304;-72
2021/12/16 05:51:48;;;;;;;6.65;5.10;;;8.40;99.90;;;;;;5035080;28;20224;-73
2021/12/16 05:54:19;;;;;;;6.05;4.65;;;8.40;99.90;;;;;;5031546;28;20209;-73
2021/12/16 05:56:52;;;;;;;6.10;4.70;;;8.40;99.90;;;;;;5034147;28;20248;-72
2021/12/16 05:59:22;;;;;;;7.88;5.70;;;8.40;99.90;;;;;;5030896;28;20684;-73
2021/12/16 06:01:53;;;;;;;6.32;5.53;;;8.40;99.90;;;;;;5032051;28;20222;-72
2021/12/16 06:04:30;;;;;;;7.75;5.32;;;8.40;99.90;;;;;;5035052;28;20618;-72
2021/12/16 06:07:06;;;;;;;8.35;5.60;;;8.40;99.90;;;;;;5032477;28;20196;-74
2021/12/16 06:09:34;;;;;;;5.78;5.05;;;8.40;99.90;;;;;;5057270;28;20220;-74
2021/12/16 06:12:02;;;;;;;5.82;5.07;;;8.40;99.90;;;;;;5044774;28;20275;-72
2021/12/16 06:14:45;;;;;;;8.57;6.38;;;8.40;99.90;;;;;;5052246;28;20213;-73
2021/12/16 06:26:26;;;;;;;6.40;4.87;;;8.40;99.90;;;;;;5048404;28;20565;-73
2021/12/16 06:28:47;;;;;;;7.85;5.55;;;8.40;99.90;;;;;;5051349;28;20237;-72
2021/12/16 06:31:16;;;;;;;7.43;5.63;;;8.40;99.90;;;;;;5048017;28;20210;-72
2021/12/16 06:33:45;;;;;;;8.30;5.70;;;8.40;99.90;;;;;;5030991;28;20698;-72
2021/12/16 06:36:17;;;;;;;7.28;6.20;;;8.40;99.90;;;;;;5046028;28;20196;-73
2021/12/16 06:38:45;;;;;;;8.75;6.70;;;8.40;99.90;;;;;;5030678;28;20527;-73
2021/12/16 06:41:23;;;;;;;9.07;5.65;;;8.40;99.90;;;;;;5035047;28;20310;-72
2021/12/16 06:44:18;;;;;;;6.43;5.75;;;8.40;99.90;;;;;;5026492;28;20223;-72
2021/12/16 06:46:48;;;;;;;8.15;5.78;;;8.40;99.90;;;;;;5033977;28;20213;-72
2021/12/16 06:49:21;;;;;;;7.68;5.88;;;8.40;99.90;;;;;;5051558;28;20213;-73
2021/12/16 06:51:53;;;;;;;7.88;6.05;;;8.40;99.90;;;;;;5035988;28;20621;-73
2021/12/16 06:54:26;;;;;;;7.72;5.63;;;8.40;99.90;;;;;;5051111;28;20218;-73
2021/12/16 06:57:05;;;;;;;7.30;5.63;;;8.40;99.90;;;;;;5060939;28;20203;-73
2021/12/16 06:59:34;;;;;;;9.05;6.57;;;8.40;99.90;;;;;;5036524;28;20714;-72
2021/12/16 07:02:10;;;;;;;7.07;6.07;;;8.40;99.90;;;;;;5035455;28;20185;-73
2021/12/16 07:04:43;;;;;;;7.70;6.05;;;8.40;99.90;;;;;;5050539;28;20712;-73
2021/12/16 07:07:12;;;;;;;10.00;6.75;;;8.40;99.90;;;;;;5052892;28;20614;-73
2021/12/16 07:09:41;;;;;;;6.90;5.55;;;8.40;99.90;;;;;;5050773;28;20222;-72
2021/12/16 07:12:11;;;;;;;8.15;6.00;;;8.40;99.90;;;;;;5052311;28;20611;-73
2021/12/16 07:14:40;;;;;;;9.27;6.82;;;8.40;99.90;;;;;;5050877;28;20212;-73
2021/12/16 07:17:12;;;;;;;8.45;5.97;;;8.40;99.90;;;;;;5035938;28;20186;-73
2021/12/16 07:19:43;;;;;;;6.73;5.77;;;8.40;99.90;;;;;;5035195;28;20227;-72
2021/12/16 07:22:13;;;;;;;8.02;5.97;;;8.40;99.90;;;;;;5034701;28;20530;-73
2021/12/16 07:24:41;;;;;;;8.82;6.93;;;8.40;99.90;;;;;;5049658;28;21001;-72
2021/12/16 07:27:09;;;;;;;8.93;6.22;;;8.40;99.90;;;;;;5036296;28;20256;-72
2021/12/16 07:29:38;;;;;;;5.65;5.05;;;8.40;99.90;;;;;;5038681;28;20222;-72
2021/12/16 07:32:07;;;;;;;6.47;5.18;;;8.40;99.90;;;;;;5044166;28;20257;-73
2021/12/16 07:34:36;;;;;;;9.40;5.30;;;8.40;99.90;;;;;;5035402;28;20254;-73
2021/12/16 07:37:08;;;;;;;6.25;5.45;;;8.40;99.90;;;;;;5049156;28;20184;-72
2021/12/16 07:39:40;;;;;;;9.18;6.03;;;8.40;99.90;;;;;;5033396;28;20288;-73
2021/12/16 07:42:12;;;;;;;8.82;5.57;;;8.40;99.90;;;;;;5050498;28;20246;-73
2021/12/16 07:44:41;;;;;;;7.30;4.90;;;8.40;99.90;;;;;;5050622;28;20266;-73
2021/12/16 07:47:12;;;;;;;7.23;5.70;;;8.40;99.90;;;;;;5034179;28;20230;-72
2021/12/16 07:49:43;;;;;;;8.38;5.72;;;8.40;99.90;;;;;;5053446;28;20471;-73
2021/12/16 07:52:15;;;;;;;10.00;7.70;;;8.40;99.90;;;;;;5046731;28;20538;-73
2021/12/16 07:54:43;;;;;;;8.27;6.85;;;8.40;99.90;;;;;;5039845;28;20288;-73
2021/12/16 07:57:11;;;;;;;10.07;6.25;;;8.40;99.90;;;;;;5051852;28;20665;-72
2021/12/16 07:59:40;;;;;;;7.20;5.10;;;8.40;99.90;;;;;;5044273;28;20251;-73
2021/12/16 08:02:11;;;;;;;7.93;7.00;;;8.30;99.90;;;;;;5017786;28;20262;-73
2021/12/16 08:04:44;;;;;;;7.30;5.70;;;8.40;99.90;;;;;;5027539;28;20218;-72
2021/12/16 08:07:18;;;;;;;7.45;5.75;;;8.40;99.90;;;;;;5051167;28;20469;-72
2021/12/16 08:09:47;;;;;;;6.35;5.45;;;8.40;99.90;;;;;;5033285;28;20719;-72
2021/12/16 08:12:17;;;;;;;8.50;6.30;;;8.40;99.90;;;;;;5034233;28;20375;-72
2021/12/16 08:14:46;;;;;;;6.13;5.03;;;8.40;99.90;;;;;;5049169;28;20590;-73
2021/12/16 08:17:16;;;;;;;7.18;5.47;;;8.40;99.90;;;;;;5051821;28;20242;-73
2021/12/16 08:19:45;;;;;;;7.72;6.20;;;8.40;99.90;;;;;;5042223;28;20221;-72
2021/12/16 08:22:16;;;;;;;6.85;5.20;;;8.40;99.90;;;;;;5047791;28;20196;-72
2021/12/16 08:24:45;;;;;;;6.47;5.88;;;8.40;99.90;;;;;;5037470;28;20643;-72
2021/12/16 08:27:14;;;;;;;6.88;5.90;;;8.40;99.90;;;;;;5042618;28;20215;-72
2021/12/16 08:29:44;;;;;;;9.48;5.50;;;8.40;99.90;;;;;;5045113;28;20215;-73
2021/12/16 08:32:13;;;;;;;7.13;5.45;;;8.40;99.90;;;;;;5069019;28;20204;-72
2021/12/16 08:34:43;;;;;;;6.40;4.93;;;8.40;99.90;;;;;;5034843;28;20223;-73
2021/12/16 08:37:14;;;;;;;7.37;5.70;;;8.40;99.90;;;;;;5054970;28;20185;-72
2021/12/16 08:39:45;;;;;;;7.15;6.25;;;8.30;99.90;;;;;;5043608;28;20560;-72
2021/12/16 08:42:13;;;;;;;7.90;6.00;;;8.40;99.90;;;;;;5048205;28;20202;-73
2021/12/16 08:44:42;;;;;;;7.40;5.50;;;8.30;99.90;;;;;;5046962;28;20690;-72
2021/12/16 08:47:14;;;;;;;6.93;5.40;;;8.30;99.90;;;;;;5035176;28;20205;-72
2021/12/16 08:49:43;;;;;;;8.73;5.93;;;8.40;99.90;;;;;;5051007;28;20783;-73
2021/12/16 08:52:15;;;;;;;7.60;5.20;;;8.40;99.90;;;;;;5047561;28;20203;-72
2021/12/16 08:54:46;;;;;;;5.68;5.18;;;8.40;99.90;;;;;;5044557;28;20217;-73
2021/12/16 08:57:14;;;;;;;6.63;5.82;;;8.40;99.90;;;;;;5047312;28;20243;-73
2021/12/16 08:59:43;;;;;;;11.00;7.47;;;8.40;99.90;;;;;;5044918;28;20219;-72
2021/12/16 09:02:12;;;;;;;9.93;6.97;;;8.40;99.90;;;;;;5053230;28;20913;-73
2021/12/16 09:04:40;;;;;;;9.65;7.03;;;8.40;99.90;;;;;;5054102;28;20240;-73
2021/12/16 09:07:11;;;;;;;12.50;6.80;;;8.40;99.90;;;;;;5035548;28;20258;-72
2021/12/16 09:09:40;;;;;;;7.10;5.57;;;8.40;99.90;;;;;;5042431;28;20470;-74
2021/12/16 09:12:26;;;;;;;9.27;6.65;;;8.40;99.90;;;;;;5058715;28;20196;-73
2021/12/16 09:14:55;;;;;;;6.53;5.30;;;8.40;99.90;;;;;;5034754;28;20276;-73
2021/12/16 09:17:23;;;;;;;8.73;5.90;;;8.40;99.90;;;;;;5052855;28;20181;-73
2021/12/16 09:19:54;;;;;;;8.23;4.80;;;8.40;99.90;;;;;;5053401;28;20234;-72
2021/12/16 09:22:25;;;;;;;6.00;5.20;;;8.40;99.90;;;;;;5046339;28;20192;-72
2021/12/16 09:24:56;;;;;;;5.95;4.72;;;8.40;99.90;;;;;;5036293;28;20227;-73
2021/12/16 09:27:26;;;;;;;8.70;5.87;;;8.40;99.90;;;;;;5017880;28;20269;-73
2021/12/16 09:29:55;;;;;;;10.10;5.83;;;8.40;99.90;;;;;;5034480;28;20508;-72
2021/12/16 09:32:27;;;;;;;7.40;5.35;;;8.40;99.90;;;;;;5034498;28;20440;-74
2021/12/16 09:34:56;;;;;;;5.68;4.65;;;8.40;99.90;;;;;;5028600;28;20216;-72
2021/12/16 09:37:25;;;;;;;6.00;4.55;;;8.40;99.90;;;;;;5053647;28;20223;-72
2021/12/16 09:39:53;;;;;;;6.60;4.97;;;8.40;99.90;;;;;;5056112;28;20224;-73
2021/12/16 09:42:21;;;;;;;7.07;4.85;;;8.40;99.90;;;;;;5054388;28;20219;-73
2021/12/16 09:44:51;;;;;;;5.75;4.65;;;8.40;99.90;;;;;;5049316;28;20626;-72
2021/12/16 09:47:21;;;;;;;9.52;5.72;;;8.40;99.90;;;;;;5054018;28;20238;-73
2021/12/16 09:49:49;;;;;;;5.20;4.70;;;8.40;99.90;;;;;;5035071;28;20238;-73
2021/12/16 09:52:17;;;;;;;5.90;4.80;;;8.40;99.90;;;;;;5036424;28;20806;-72
2021/12/16 09:54:47;;;;;;;7.78;4.22;;;8.40;99.90;;;;;;5033418;28;20226;-73
2021/12/16 09:57:18;;;;;;;7.07;4.63;;;8.40;99.90;;;;;;5034278;28;20188;-74
2021/12/16 09:59:46;;;;;;;6.35;4.47;;;8.40;99.90;;;;;;5044604;28;20220;-74
2021/12/16 10:02:19;;;;;;;5.05;4.35;;;8.40;99.90;;;;;;5036158;28;20239;-73
2021/12/16 10:04:48;;;;;;;5.35;4.75;;;8.40;99.90;;;;;;5052188;28;20226;-73
2021/12/16 10:07:19;;;;;;;6.60;5.28;;;8.40;99.90;;;;;;5051146;28;20299;-73
2021/12/16 10:09:49;;;;;;;6.15;4.25;;;8.40;99.90;;;;;;5030106;28;20758;-72
2021/12/16 10:12:22;;;;;;;6.65;5.10;;;8.40;99.90;;;;;;5035703;28;20187;-73
2021/12/16 10:17:42;;;;;;;8.82;5.47;;;8.40;99.90;;;;;;5035311;28;20189;-73
2021/12/16 10:20:16;;;;;;;8.52;6.13;;;8.40;99.90;;;;;;5050201;28;20577;-73
2021/12/16 10:22:45;;;;;;;7.37;5.33;;;8.40;99.90;;;;;;5024151;28;20199;-73
2021/12/16 10:25:21;;;;;;;5.93;5.33;;;8.40;99.90;;;;;;5041791;28;20438;-73
2021/12/16 10:27:59;;;;;;;6.47;4.75;;;8.40;99.90;;;;;;5018298;28;20902;-74
2021/12/16 10:30:44;;;;;;;6.60;5.15;;;8.40;99.90;;;;;;5048395;28;20223;-73
2021/12/16 10:33:18;;;;;;;7.30;5.03;;;8.40;99.90;;;;;;5041709;28;20222;-72
2021/12/16 10:35:47;;;;;;;8.63;5.93;;;8.40;99.90;;;;;;5042712;28;20438;-73
2021/12/16 10:38:19;;;;;;;6.30;5.50;;;8.40;99.90;;;;;;5042995;28;20218;-72
2021/12/16 10:40:49;;;;;;;6.97;4.85;;;8.40;99.90;;;;;;5034185;28;20213;-73
2021/12/16 10:43:26;;;;;;;6.50;4.70;;;8.50;99.90;;;;;;5038191;28;20223;-73
2021/12/16 10:45:58;;;;;;;7.78;5.82;;;8.50;99.90;;;;;;5059691;28;20197;-72
2021/12/16 10:48:30;;;;;;;6.68;4.68;;;8.50;99.90;;;;;;5041593;28;20218;-73
2021/12/16 10:51:06;;;;;;;8.35;5.90;;;8.40;99.90;;;;;;5053580;28;20723;-72
2021/12/16 10:54:00;;;;;;;7.72;6.13;;;8.40;99.90;;;;;;5051034;28;20229;-73
2021/12/16 10:56:32;;;;;;;8.82;6.32;;;8.50;99.90;;;;;;5046409;28;20200;-73
2021/12/16 10:59:03;;;;;;;5.93;5.10;;;8.50;99.90;;;;;;5032693;28;20575;-73
2021/12/16 11:01:46;;;;;;;11.38;6.05;;;8.50;99.90;;;;;;5037513;28;20188;-71
2021/12/16 11:04:21;;;;;;;8.00;6.53;;;8.40;99.90;;;;;;5035569;28;20962;-72
2021/12/16 11:06:53;;;;;;;10.60;6.32;;;8.50;99.90;;;;;;5044221;28;20217;-73
2021/12/16 11:09:44;;;;;;;7.78;6.35;;;8.50;99.90;;;;;;5050574;28;20224;-73
2021/12/16 11:12:38;;;;;;;6.35;5.57;;;8.50;99.90;;;;;;5051102;28;20189;-72
2021/12/16 11:15:12;;;;;;;11.10;6.05;;;8.50;99.90;;;;;;5039735;28;20216;-72
2021/12/16 11:17:43;;;;;;;8.40;6.03;;;8.50;99.90;;;;;;5063661;28;20286;-73
2021/12/16 11:20:28;;;;;;;7.68;6.10;;;8.50;99.90;;;;;;5034557;28;20205;-72
2021/12/16 11:22:59;;;;;;;8.60;6.53;;;8.50;99.90;;;;;;5037133;28;20229;-73
2021/12/16 11:25:30;;;;;;;8.68;6.30;;;8.50;99.90;;;;;;5043722;28;20574;-74
2021/12/16 11:28:08;;;;;;;10.03;5.80;;;8.50;99.90;;;;;;5049835;28;20708;-73
2021/12/16 11:30:41;;;;;;;8.95;5.40;;;8.50;99.90;;;;;;5050983;28;20464;-74
2021/12/16 11:33:22;;;;;;;8.18;5.53;;;8.50;99.90;;;;;;5045333;28;20310;-72
2021/12/16 11:36:00;;;;;;;9.15;6.38;;;8.50;99.90;;;;;;5035249;28;20279;-73
2021/12/16 11:38:33;;;;;;;7.50;5.25;;;8.50;99.90;;;;;;5048202;28;20683;-72
2021/12/16 11:41:35;;;;;;;7.55;6.30;;;8.50;99.90;;;;;;5034106;28;20205;-72
2021/12/16 11:44:16;;;;;;;8.85;6.30;;;8.50;99.90;;;;;;5036590;28;20242;-73
2021/12/16 11:46:48;;;;;;;8.00;7.20;;;8.50;99.90;;;;;;5046063;28;20292;-72
2021/12/16 11:49:27;;;;;;;10.15;6.53;;;8.50;99.90;;;;;;5051324;28;20226;-72
2021/12/16 11:52:02;;;;;;;8.33;6.47;;;8.50;99.90;;;;;;5052273;28;20655;-72
2021/12/16 11:54:34;;;;;;;8.90;6.32;;;8.50;99.90;;;;;;5050853;28;21018;-73
2021/12/16 11:57:10;;;;;;;11.65;7.63;;;8.50;99.90;;;;;;5034620;28;20201;-73
2021/12/16 11:59:41;;;;;;;10.43;6.03;;;8.50;99.90;;;;;;5050943;28;20213;-72
2021/12/16 12:02:22;;;;;;;8.15;5.80;;;8.50;99.90;;;;;;5051234;28;20191;-73
2021/12/16 12:04:52;;;;;;;8.23;6.88;;;8.50;99.90;;;;;;5051282;28;20272;-72
2021/12/16 12:07:22;;;;;;;9.32;6.35;;;8.50;99.90;;;;;;5033515;28;20715;-72
2021/12/16 12:09:53;;;;;;;8.50;6.57;;;8.50;99.90;;;;;;5051108;28;20273;-72
2021/12/16 12:12:39;;;;;;;7.40;5.65;;;8.50;99.90;;;;;;5052097;28;20248;-73
2021/12/16 12:15:10;;;;;;;9.43;6.30;;;8.50;99.90;;;;;;5037430;28;20223;-73
2021/12/16 12:17:47;;;;;;;8.52;5.85;;;8.50;99.90;;;;;;5022753;28;20431;-73
2021/12/16 12:20:16;;;;;;;8.00;6.53;;;8.50;99.90;;;;;;5050443;28;20218;-72
2021/12/16 12:22:50;;;;;;;8.17;6.93;;;8.50;99.90;;;;;;5051686;28;20471;-73
2021/12/16 12:25:22;;;;;;;7.75;5.82;;;8.50;99.90;;;;;;5049993;28;21001;-73
2021/12/16 12:27:51;;;;;;;8.10;5.68;;;8.50;99.90;;;;;;5033342;28;20198;-72
2021/12/16 12:30:21;;;;;;;9.27;6.15;;;8.50;99.90;;;;;;5051380;28;20627;-71
2021/12/16 12:32:52;;;;;;;9.52;6.88;;;8.50;99.90;;;;;;5033461;28;20201;-73
2021/12/16 12:35:25;;;;;;;9.43;6.25;;;8.50;99.90;;;;;;5051924;28;20208;-72
2021/12/16 12:37:56;;;;;;;8.35;6.20;;;8.50;99.90;;;;;;5032973;28;20239;-73
2021/12/16 12:40:28;;;;;;;8.60;7.00;;;8.50;99.90;;;;;;5049305;28;20285;-72
2021/12/16 12:42:57;;;;;;;11.98;7.45;;;8.50;99.90;;;;;;5039731;28;20284;-72
2021/12/16 12:45:28;;;;;;;10.10;6.93;;;8.50;99.90;;;;;;5043278;28;20206;-72
2021/12/16 12:48:00;;;;;;;6.97;6.28;;;8.50;99.90;;;;;;5040517;28;20868;-74
2021/12/16 12:50:32;;;;;;;10.27;6.85;;;8.50;99.90;;;;;;5031634;28;20213;-72
2021/12/16 12:53:12;;;;;;;7.63;6.07;;;8.50;99.90;;;;;;5040056;28;20268;-73
2021/12/16 12:55:42;;;;;;;7.82;5.95;;;8.50;99.90;;;;;;5038287;28;20922;-73
2021/12/16 12:58:13;;;;;;;8.05;7.05;;;8.50;99.90;;;;;;5065454;28;20243;-73
2021/12/16 13:00:45;;;;;;;9.25;6.35;;;8.50;99.90;;;;;;5042427;28;20295;-72
2021/12/16 13:03:18;;;;;;;8.18;6.50;;;8.50;99.90;;;;;;5042252;28;20740;-72
2021/12/16 13:05:52;;;;;;;9.10;6.37;;;8.50;99.90;;;;;;5048030;28;20217;-74
2021/12/16 13:08:28;;;;;;;8.82;6.95;;;8.50;99.90;;;;;;5051348;28;20472;-73
2021/12/16 13:11:00;;;;;;;9.70;6.77;;;8.50;99.90;;;;;;5047730;28;20239;-73
2021/12/16 13:13:34;;;;;;;8.17;5.80;;;8.50;99.90;;;;;;5048383;28;20504;-74
2021/12/16 13:16:40;;;;;;;7.03;6.10;;;8.50;99.90;;;;;;5051009;28;20450;-73
2021/12/16 13:25:52;;;;;;;10.82;8.43;;;8.50;99.90;;;;;;5035910;28;21006;-72
2021/12/16 13:28:20;;;;;;;10.13;7.00;;;8.60;99.90;;;;;;5045613;28;20219;-73
2021/12/16 13:30:58;;;;;;;10.90;8.40;;;8.60;99.90;;;;;;5043012;28;20458;-73
2021/12/16 13:33:38;;;;;;;13.40;7.10;;;8.60;99.90;;;;;;5057332;28;20518;-73
2021/12/16 13:36:16;;;;;;;12.33;7.93;;;8.60;99.90;;;;;;5052901;28;20998;-73
2021/12/16 13:38:49;;;;;;;9.73;6.63;;;8.60;99.90;;;;;;5051436;28;20459;-73
2021/12/16 13:41:21;;;;;;;9.60;7.90;;;8.60;99.90;;;;;;5038797;28;20466;-72
2021/12/16 13:43:58;;;;;;;9.87;8.10;;;8.60;99.90;;;;;;5048944;28;20470;-72
2021/12/16 13:46:35;;;;;;;11.20;7.73;;;8.60;99.90;;;;;;5035509;28;20523;-73
2021/12/16 14:03:24;;;;;;;9.63;7.47;;;8.60;99.90;;;;;;5036193;28;20223;-72
2021/12/16 14:06:09;;;;;;;8.90;7.10;;;8.60;99.90;;;;;;5043690;28;20463;-73
2021/12/16 14:08:42;;;;;;;11.38;8.63;;;8.60;99.90;;;;;;5054619;28;20315;-73
2021/12/16 14:14:48;;;;;;;8.20;6.87;;;8.60;99.90;;;;;;5011234;28;20469;-72
2021/12/16 14:17:41;;;;;;;9.40;6.97;;;8.60;99.90;;;;;;5039056;28;20437;-73
2021/12/16 14:23:24;;;;;;;12.05;6.45;;;8.60;99.90;;;;;;5022156;28;20509;-71
2021/12/16 14:26:20;;;;;;;12.20;8.10;;;8.60;99.90;;;;;;5017385;28;20449;-72
2021/12/16 14:37:22;;;;;;;8.10;7.00;;;8.60;99.90;;;;;;5030271;28;20964;-73
2021/12/16 14:40:09;;;;;;;9.82;7.07;;;8.60;99.90;;;;;;5022276;28;20270;-73
2021/12/16 14:42:47;;;;;;;9.25;6.57;;;8.50;99.90;;;;;;5014681;28;20193;-72
2021/12/16 14:45:33;;;;;;;11.03;8.00;;;8.60;99.90;;;;;;5032179;28;20196;-72
2021/12/16 14:48:22;;;;;;;9.68;7.95;;;8.60;99.90;;;;;;5023722;28;20453;-72
2021/12/16 14:50:55;;;;;;;12.33;8.20;;;8.60;99.90;;;;;;5032744;28;20225;-72
2021/12/16 14:53:33;;;;;;;11.17;7.43;;;8.60;99.90;;;;;;5032536;28;20458;-73
2021/12/16 14:56:05;;;;;;;6.80;5.80;;;8.60;99.90;;;;;;5032642;28;20821;-72
2021/12/16 14:58:37;;;;;;;8.67;6.93;;;8.60;99.90;;;;;;5013983;28;20837;-73
2021/12/16 15:01:08;;;;;;;7.87;6.07;;;8.50;99.90;;;;;;5025000;28;20450;-72
2021/12/16 15:03:42;;;;;;;8.23;6.25;;;8.60;99.90;;;;;;5032218;28;20474;-72
2021/12/16 15:06:18;;;;;;;7.97;5.85;;;8.60;99.90;;;;;;5025966;28;20221;-73
2021/12/16 15:08:53;;;;;;;7.90;6.60;;;8.50;99.90;;;;;;5011310;28;20274;-73
2021/12/16 15:11:32;;;;;;;9.17;6.57;;;8.60;99.90;;;;;;5032624;28;20518;-73
2021/12/16 15:14:06;;;;;;;8.63;6.07;;;8.60;99.90;;;;;;5029453;28;20546;-72
2021/12/16 15:16:51;;;;;;;7.20;6.28;;;8.60;99.90;;;;;;5032289;28;20940;-73
2021/12/16 15:39:16;;;;;;;6.40;5.65;;;8.50;99.90;;;;;;5027619;28;20216;-72
2021/12/16 15:44:30;;;;;;;9.00;5.47;;;8.60;99.90;;;;;;5030111;28;20223;-73
2021/12/16 15:46:58;;;;;;;8.25;6.57;;;8.60;99.90;;;;;;5031326;28;20432;-72
2021/12/16 15:49:26;;;;;;;7.30;5.30;;;8.60;99.90;;;;;;5030550;28;20435;-73
2021/12/16 15:51:56;;;;;;;6.53;5.22;;;8.60;99.90;;;;;;5031454;28;20494;-72
2021/12/16 15:54:29;;;;;;;5.78;5.13;;;8.60;99.90;;;;;;5030780;28;20730;-73
2021/12/16 15:56:58;;;;;;;8.63;5.03;;;8.60;99.90;;;;;;5031589;28;20202;-74
2021/12/16 15:59:28;;;;;;;10.23;6.00;;;8.60;99.90;;;;;;5030958;28;20612;-73